Arsenal, Utah
Current Conditions -  °F | °C
As of 8:58 AM on Thursday 29 Jan 2015 (Local Time) from KHIF Reporting Station
Scattered Clouds Scattered Clouds  
Wind Chill: 33°   Ceiling: Unl
Heat Index: 41°   Visibility: 10mi
Dew Point: 26°   Wind: 18mph
Humidity: 54%   Direction: 80°E
Pressure: 30.34"   Gusts: 24mph
Location:  41.123°N, 112.063°W
Report Text: KHIF 291558Z 08016G21KT 10SM FEW040 SCT200 05/M03 A3034 RMK AO2A SLP271 MIDFLD WND 080/16G19KT T00521034
Loading
Personal Weather Stations






























Interactive Weather Map New forecast layout! Learn more

10-Day Weather Forecast

Advertisements
Track Severe Weather on mobile